CO56 weather

Jjs Airport
Keenesburg, Colorado, United States

Public forecast

Using degrees Fahrenheit for public forecast. Weather courtesy of forecast.io.

Closest aviation weather report (METAR) to Jjs Airport

Closest report is Colorado Air and Space Port, 11.3 nm (21.0 km) SSW. Retrieved UTC (0 seconds ago):

Closest aviation forecast (TAF) to Jjs Airport

Closest forecast is Denver International Airport, 11.5 nm (21.2 km) WSW. Retrieved 2019/12/09 12:39 UTC (3 hours ago):

TAF KDEN 091136Z 0912/1018 09007KT P6SM FEW012 SCT070 TEMPO 0912/0913 BKN070 FM091600 12006KT P6SM SCT020 BKN070 FM092100 36008KT P6SM SCT080 SCT120 FM100100 20009KT P6SM FEW120 SCT200